createdAt,value
2018-04-29T00:01:49.497Z,7.63
2018-04-29T00:04:17.926Z,3.97
2018-04-29T00:06:51.227Z,3.67
2018-04-29T00:09:19.681Z,6.43
2018-04-29T00:12:02.584Z,3.97
2018-04-29T00:14:32.833Z,7.17
2018-04-29T00:17:01.738Z,4.40
2018-04-29T00:19:30.348Z,4.10
2018-04-29T00:21:59.089Z,4.70
2018-04-29T00:24:28.575Z,6.30
2018-04-29T00:27:10.178Z,8.47
2018-04-29T00:29:39.667Z,5.20
2018-04-29T00:32:08.617Z,8.50
2018-04-29T00:34:37.086Z,6.90
2018-04-29T00:37:06.837Z,6.13
2018-04-29T00:39:35.352Z,5.17
2018-04-29T00:42:08.617Z,6.50
2018-04-29T00:44:38.430Z,5.13
2018-04-29T00:47:11.800Z,4.27
2018-04-29T00:49:40.262Z,6.67
2018-04-29T00:52:13.268Z,6.23
2018-04-29T00:54:42.004Z,7.10
2018-04-29T00:57:24.742Z,3.03
2018-04-29T00:59:54.492Z,6.07
2018-04-29T01:02:22.994Z,4.33
2018-04-29T01:04:52.328Z,8.20
2018-04-29T01:07:22.171Z,5.50
2018-04-29T01:09:52.142Z,3.67
2018-04-29T01:12:22.451Z,4.23
2018-04-29T01:14:52.291Z,6.27
2018-04-29T01:17:33.219Z,4.30
2018-04-29T01:20:02.783Z,5.50
2018-04-29T01:22:32.295Z,4.00
2018-04-29T01:25:00.750Z,7.73
2018-04-29T01:27:30.234Z,3.97
2018-04-29T01:29:59.475Z,4.63
2018-04-29T01:32:31.363Z,6.23
2018-04-29T01:35:00.084Z,4.37
2018-04-29T01:37:42.492Z,5.57
2018-04-29T01:40:12.342Z,4.10
2018-04-29T01:42:40.824Z,4.70
2018-04-29T01:45:09.298Z,3.73
2018-04-29T01:47:38.266Z,5.40
2018-04-29T01:50:07.090Z,3.33
2018-04-29T01:52:39.858Z,6.93
2018-04-29T01:55:08.556Z,4.93
2018-04-29T01:57:41.473Z,4.63
2018-04-29T02:00:09.940Z,5.10
2018-04-29T02:05:14.985Z,6.87
2018-04-29T02:07:47.855Z,7.60
2018-04-29T02:10:16.579Z,5.13
2018-04-29T02:12:58.961Z,5.70
2018-04-29T02:15:28.096Z,8.17
2018-04-29T02:17:56.598Z,4.40
2018-04-29T02:20:26.174Z,4.57
2018-04-29T02:22:56.052Z,7.07
2018-04-29T02:25:24.978Z,8.23
2018-04-29T02:27:57.969Z,4.10
2018-04-29T02:30:26.703Z,5.50
2018-04-29T02:33:07.427Z,4.90
2018-04-29T02:35:36.783Z,5.83
2018-04-29T02:38:06.359Z,4.60
2018-04-29T02:40:34.840Z,8.43
2018-04-29T02:43:07.178Z,4.70
2018-04-29T02:45:36.443Z,6.67
2018-04-29T02:48:18.891Z,5.33
2018-04-29T02:50:47.679Z,6.50
2018-04-29T02:53:16.913Z,5.23
2018-04-29T02:55:46.415Z,5.97
2018-04-29T02:58:15.175Z,4.03
2018-04-29T03:00:44.290Z,4.27
2018-04-29T03:03:17.139Z,5.63
2018-04-29T03:05:47.345Z,5.17
2018-04-29T03:08:18.480Z,8.67
2018-04-29T03:10:47.920Z,5.53
2018-04-29T03:13:30.761Z,5.03
2018-04-29T03:15:59.246Z,4.83
2018-04-29T03:18:27.714Z,4.63
2018-04-29T03:20:56.991Z,4.50
2018-04-29T03:23:26.584Z,9.17
2018-04-29T03:25:55.454Z,5.53
2018-04-29T03:28:28.901Z,4.23
2018-04-29T03:30:58.388Z,6.00
2018-04-29T03:33:30.068Z,3.90
2018-04-29T03:35:59.886Z,4.40
2018-04-29T03:38:40.910Z,6.43
2018-04-29T03:41:09.775Z,7.60
2018-04-29T03:43:39.741Z,4.60
2018-04-29T03:46:08.215Z,4.47
2018-04-29T03:48:37.743Z,4.10
2018-04-29T03:51:06.582Z,6.80
2018-04-29T03:53:40.297Z,5.07
2018-04-29T03:56:09.043Z,5.87
2018-04-29T04:03:07.522Z,4.53
2018-04-29T04:05:37.095Z,5.40
2018-04-29T04:08:06.699Z,4.67
2018-04-29T04:10:35.541Z,5.60
2018-04-29T04:13:04.000Z,5.70
2018-04-29T04:15:32.469Z,6.70
2018-04-29T04:18:02.826Z,4.63
2018-04-29T04:20:32.034Z,6.47
2018-04-29T04:23:01.651Z,6.00
2018-04-29T04:25:33.016Z,3.80
2018-04-29T04:28:02.688Z,5.90
2018-04-29T04:30:31.544Z,5.97
2018-04-29T04:33:00.635Z,6.83
2018-04-29T04:35:29.339Z,6.70
2018-04-29T04:38:01.748Z,6.87
2018-04-29T04:40:31.958Z,6.63
2018-04-29T04:43:03.751Z,5.67
2018-04-29T04:45:32.609Z,5.77
2018-04-29T04:48:14.727Z,5.53
2018-04-29T04:50:43.946Z,7.90
2018-04-29T04:53:13.709Z,6.37
2018-04-29T04:55:42.220Z,4.07
2018-04-29T04:58:14.335Z,6.50
2018-04-29T05:00:43.240Z,6.47
2018-04-29T05:03:15.955Z,7.93
2018-04-29T05:05:44.447Z,9.03
2018-04-29T05:08:16.734Z,4.83
2018-04-29T05:10:45.224Z,6.50
2018-04-29T05:13:17.782Z,8.50
2018-04-29T05:15:47.027Z,5.30
2018-04-29T05:18:20.235Z,5.27
2018-04-29T05:20:48.716Z,5.77
2018-04-29T05:23:21.802Z,5.77
2018-04-29T05:25:50.256Z,6.57
2018-04-29T05:28:23.613Z,6.53
2018-04-29T05:30:53.197Z,4.37
2018-04-29T05:33:26.134Z,7.20
2018-04-29T05:35:54.624Z,6.27
2018-04-29T05:38:29.299Z,6.00
2018-04-29T05:40:58.960Z,7.00
2018-04-29T05:43:40.715Z,6.23
2018-04-29T05:46:10.079Z,5.90
2018-04-29T05:48:39.630Z,4.70
2018-04-29T05:51:10.159Z,7.03
2018-04-29T05:53:39.387Z,6.50
2018-04-29T05:56:09.192Z,5.00
2018-04-29T05:58:39.904Z,7.03
2018-04-29T06:01:08.781Z,6.73
2018-04-29T06:03:42.729Z,4.67
2018-04-29T06:06:12.548Z,5.77
2018-04-29T06:08:45.160Z,7.40
2018-04-29T06:11:14.069Z,6.43
2018-04-29T06:13:55.799Z,5.43
2018-04-29T06:16:25.557Z,6.13
2018-04-29T06:18:54.041Z,7.17
2018-04-29T06:21:22.547Z,4.80
2018-04-29T06:23:52.382Z,5.93
2018-04-29T06:26:21.679Z,5.27
2018-04-29T06:29:02.626Z,7.03
2018-04-29T06:31:32.398Z,5.93
2018-04-29T06:34:01.672Z,5.97
2018-04-29T06:36:32.494Z,11.33
2018-04-29T06:39:01.998Z,7.40
2018-04-29T06:41:32.034Z,5.23
2018-04-29T06:57:10.574Z,7.60
2018-04-29T06:59:40.126Z,11.10
2018-04-29T07:02:13.424Z,8.07
2018-04-29T07:04:42.700Z,7.13
2018-04-29T07:07:14.749Z,6.30
2018-04-29T07:09:44.027Z,5.20
2018-04-29T07:12:17.241Z,4.33
2018-04-29T07:14:47.514Z,5.37
2018-04-29T07:17:18.331Z,6.00
2018-04-29T07:19:47.198Z,6.87
2018-04-29T07:22:20.639Z,7.13
2018-04-29T07:24:49.487Z,4.33
2018-04-29T07:27:23.627Z,6.60
2018-04-29T07:29:52.890Z,6.80
2018-04-29T07:32:25.702Z,4.83
2018-04-29T07:34:54.583Z,6.43
2018-04-29T07:37:35.983Z,7.63
2018-04-29T07:40:05.663Z,6.73
2018-04-29T07:42:34.187Z,5.90
2018-04-29T07:45:03.399Z,5.80
2018-04-29T07:47:32.661Z,4.63
2018-04-29T07:50:01.922Z,6.33
2018-04-29T07:52:34.247Z,6.20
2018-04-29T07:55:02.692Z,9.57
2018-04-29T07:57:35.380Z,8.23
2018-04-29T08:00:04.383Z,10.00
2018-04-29T08:02:37.921Z,8.80
2018-04-29T08:05:07.940Z,9.77
2018-04-29T08:07:41.138Z,5.50
2018-04-29T08:10:11.127Z,9.07
2018-04-29T08:12:43.686Z,7.50
2018-04-29T08:15:12.940Z,7.60
2018-04-29T08:17:46.612Z,7.40
2018-04-29T08:20:15.538Z,9.13
2018-04-29T08:22:48.601Z,9.80
2018-04-29T08:25:17.910Z,6.27
2018-04-29T08:27:51.808Z,6.93
2018-04-29T08:30:20.315Z,9.93
2018-04-29T08:32:53.699Z,10.57
2018-04-29T08:35:22.557Z,8.47
2018-04-29T08:38:04.871Z,8.83
2018-04-29T08:40:33.351Z,8.13
2018-04-29T08:43:03.151Z,13.47
2018-04-29T08:45:32.420Z,8.57
2018-04-29T08:48:01.658Z,8.73
2018-04-29T08:50:32.090Z,10.70
2018-04-29T08:53:05.237Z,11.27
2018-04-29T08:55:34.078Z,11.87
2018-04-29T08:58:06.975Z,11.23
2018-04-29T09:00:35.473Z,9.60
2018-04-29T09:03:10.942Z,12.60
2018-04-29T09:05:39.674Z,11.37
2018-04-29T09:08:21.327Z,11.20
2018-04-29T09:10:50.856Z,8.93
2018-04-29T09:13:19.364Z,9.17
2018-04-29T09:15:48.938Z,11.80
2018-04-29T09:18:18.186Z,12.33
2018-04-29T09:20:47.318Z,8.97
2018-04-29T09:23:20.234Z,10.47
2018-04-29T09:25:49.569Z,8.50
2018-04-29T09:28:22.419Z,11.27
2018-04-29T09:30:50.936Z,10.53
2018-04-29T09:33:23.613Z,11.73
2018-04-29T09:35:52.399Z,9.33
2018-04-29T09:38:27.888Z,8.60
2018-04-29T09:40:57.111Z,10.50
2018-04-29T09:43:28.349Z,12.63
2018-04-29T09:45:57.139Z,7.53
2018-04-29T09:48:30.448Z,7.20
2018-04-29T09:50:59.643Z,8.93
2018-04-29T09:53:42.384Z,5.97
2018-04-29T09:56:12.355Z,7.20
2018-04-29T09:58:40.828Z,8.50
2018-04-29T10:01:15.017Z,6.90
2018-04-29T10:03:47.282Z,7.53
2018-04-29T10:06:16.263Z,8.30
2018-04-29T10:08:45.784Z,8.10
2018-04-29T10:11:14.280Z,7.20
2018-04-29T10:13:44.001Z,5.30
2018-04-29T10:16:13.777Z,7.77
2018-04-29T10:18:46.604Z,11.77
2018-04-29T10:34:30.651Z,6.90
2018-04-29T10:36:59.223Z,9.50
2018-04-29T10:39:27.981Z,7.17
2018-04-29T10:41:58.031Z,7.57
2018-04-29T10:44:27.282Z,7.00
2018-04-29T10:47:00.714Z,8.83
2018-04-29T10:49:29.183Z,9.00
2018-04-29T10:52:10.759Z,6.77
2018-04-29T10:54:40.581Z,7.53
2018-04-29T10:57:09.310Z,8.13
2018-04-29T10:59:38.991Z,9.73
2018-04-29T11:02:10.873Z,9.80
2018-04-29T11:04:40.588Z,9.67
2018-04-29T11:07:13.054Z,12.90
2018-04-29T11:09:42.196Z,9.33
2018-04-29T11:12:14.650Z,6.47
2018-04-29T11:14:43.942Z,7.87
2018-04-29T11:17:16.063Z,9.80
2018-04-29T11:19:45.705Z,11.57
2018-04-29T11:22:18.884Z,8.93
2018-04-29T11:24:48.232Z,8.93
2018-04-29T11:27:21.358Z,12.00
2018-04-29T11:29:49.873Z,7.97
2018-04-29T11:32:30.912Z,8.30
2018-04-29T11:34:59.399Z,8.50
2018-04-29T11:37:29.046Z,9.17
2018-04-29T11:39:57.567Z,8.90
2018-04-29T11:42:27.199Z,12.73
2018-04-29T11:44:55.960Z,9.73
2018-04-29T11:47:29.327Z,7.63
2018-04-29T11:49:58.931Z,8.60
2018-04-29T11:52:39.754Z,10.27
2018-04-29T11:55:09.267Z,8.60
2018-04-29T11:57:38.020Z,6.80
2018-04-29T12:00:07.261Z,8.50
2018-04-29T12:02:37.297Z,7.90
2018-04-29T12:05:07.585Z,9.13
2018-04-29T12:07:38.046Z,8.23
2018-04-29T12:10:06.907Z,7.07
2018-04-29T12:12:39.720Z,7.83
2018-04-29T12:15:08.748Z,7.63
2018-04-29T12:17:42.363Z,8.10
2018-04-29T12:20:12.236Z,8.73
2018-04-29T12:22:53.444Z,6.63
2018-04-29T12:25:22.950Z,9.53
2018-04-29T12:27:52.187Z,6.30
2018-04-29T12:30:20.660Z,8.03
2018-04-29T12:32:52.318Z,7.73
2018-04-29T12:35:21.778Z,9.70
2018-04-29T12:37:54.928Z,7.43
2018-04-29T12:40:23.468Z,8.57
2018-04-29T12:42:55.787Z,7.03
2018-04-29T12:45:24.699Z,6.20
2018-04-29T12:47:58.108Z,7.67
2018-04-29T12:50:26.992Z,7.27
2018-04-29T12:53:00.768Z,6.67
2018-04-29T12:55:29.267Z,4.87
2018-04-29T12:58:03.066Z,7.17
2018-04-29T13:00:32.846Z,8.83
2018-04-29T13:03:05.065Z,6.47
2018-04-29T13:05:35.077Z,7.33
2018-04-29T13:08:10.173Z,7.43
2018-04-29T13:10:38.710Z,8.40
2018-04-29T13:13:12.122Z,9.73
2018-04-29T13:15:40.975Z,9.17
2018-04-29T13:18:14.140Z,9.57
2018-04-29T13:20:42.624Z,6.80
2018-04-29T13:23:15.648Z,10.23
2018-04-29T13:25:44.826Z,8.03
2018-04-29T13:28:17.322Z,7.83
2018-04-29T13:30:46.609Z,12.33
2018-04-29T13:33:20.100Z,10.70
2018-04-29T13:35:49.439Z,6.57
2018-04-29T13:38:22.235Z,11.27
2018-04-29T13:40:51.472Z,6.97
2018-04-29T13:43:24.129Z,10.87
2018-04-29T13:45:52.905Z,10.57
2018-04-29T13:48:30.067Z,8.93
2018-04-29T13:50:58.580Z,7.40
2018-04-29T13:53:30.753Z,8.07
2018-04-29T13:55:59.311Z,7.60
2018-04-29T13:58:32.739Z,8.83
2018-04-29T14:01:02.624Z,8.63
2018-04-29T14:03:34.765Z,6.10
2018-04-29T14:06:03.989Z,8.40
2018-04-29T14:08:46.109Z,7.43
2018-04-29T14:11:14.846Z,9.50
2018-04-29T14:13:43.747Z,8.00
2018-04-29T14:16:13.050Z,8.57
2018-04-29T14:18:42.254Z,6.93
2018-04-29T14:21:11.474Z,7.63
2018-04-29T14:23:53.167Z,8.90
2018-04-29T14:26:22.080Z,6.07
2018-04-29T14:28:50.951Z,9.03
2018-04-29T14:31:19.476Z,8.30
2018-04-29T14:46:57.352Z,6.50
2018-04-29T14:49:26.945Z,8.27
2018-04-29T14:51:57.776Z,10.03
2018-04-29T14:54:27.263Z,11.33
2018-04-29T14:57:00.487Z,12.73
2018-04-29T14:59:30.002Z,8.57
2018-04-29T15:02:03.499Z,7.80
2018-04-29T15:04:33.308Z,12.60
2018-04-29T15:07:06.631Z,11.37
2018-04-29T15:09:36.147Z,7.23
2018-04-29T15:12:10.660Z,11.73
2018-04-29T15:14:39.107Z,7.07
2018-04-29T15:17:12.565Z,10.97
2018-04-29T15:19:49.107Z,8.80
2018-04-29T15:22:18.631Z,8.20
2018-04-29T15:24:48.663Z,10.43
2018-04-29T15:27:17.142Z,7.40
2018-04-29T15:29:47.093Z,8.83
2018-04-29T15:32:18.175Z,8.07
2018-04-29T15:34:47.066Z,11.83
2018-04-29T15:37:20.195Z,7.40
2018-04-29T15:39:48.918Z,9.87
2018-04-29T15:42:22.715Z,9.40
2018-04-29T15:44:52.307Z,8.57
2018-04-29T15:47:33.498Z,7.97
2018-04-29T15:50:02.804Z,9.40
2018-04-29T15:52:32.625Z,11.80
2018-04-29T15:55:02.224Z,7.30
2018-04-29T15:57:31.138Z,10.57
2018-04-29T15:59:59.664Z,11.93
2018-04-29T16:02:32.235Z,12.30
2018-04-29T16:05:02.966Z,9.77
2018-04-29T16:07:34.919Z,7.93
2018-04-29T16:10:03.495Z,13.23
2018-04-29T16:12:37.443Z,9.90
2018-04-29T16:15:05.927Z,9.60
2018-04-29T16:17:38.921Z,8.20
2018-04-29T16:20:08.179Z,9.40
2018-04-29T16:22:41.643Z,11.17
2018-04-29T16:25:10.130Z,9.20
2018-04-29T16:27:43.560Z,8.53
2018-04-29T16:30:12.067Z,8.60
2018-04-29T16:32:48.025Z,14.40
2018-04-29T16:35:17.915Z,8.23
2018-04-29T16:37:50.929Z,6.23
2018-04-29T16:40:19.784Z,13.00
2018-04-29T16:42:52.539Z,10.67
2018-04-29T16:45:22.120Z,6.63
2018-04-29T16:47:53.686Z,12.57
2018-04-29T16:50:22.588Z,14.13
2018-04-29T16:52:55.498Z,14.13
2018-04-29T16:55:24.049Z,16.27
2018-04-29T16:57:56.563Z,20.07
2018-04-29T17:00:25.036Z,16.90
2018-04-29T17:02:53.974Z,14.20
2018-04-29T17:05:23.226Z,13.00
2018-04-29T17:07:52.469Z,11.60
2018-04-29T17:10:22.203Z,10.60
2018-04-29T17:12:50.691Z,10.63
2018-04-29T17:15:19.194Z,7.03
2018-04-29T17:17:48.918Z,13.20
2018-04-29T17:20:17.891Z,13.77
2018-04-29T17:22:47.930Z,28.77
2018-04-29T17:25:17.493Z,21.20
2018-04-29T17:27:47.022Z,8.87
2018-04-29T17:30:16.639Z,12.40
2018-04-29T17:32:46.510Z,13.30
2018-04-29T17:35:19.702Z,16.27
2018-04-29T17:37:48.979Z,12.20
2018-04-29T17:40:21.044Z,12.87
2018-04-29T17:42:51.312Z,11.00
2018-04-29T17:45:25.752Z,15.77
2018-04-29T17:47:54.335Z,16.00
2018-04-29T17:50:35.315Z,11.53
2018-04-29T17:53:05.819Z,10.80
2018-04-29T17:55:35.131Z,8.67
2018-04-29T17:58:03.993Z,10.03
2018-04-29T18:00:33.303Z,8.20
2018-04-29T18:03:03.867Z,12.73
2018-04-29T18:05:33.905Z,10.90
2018-04-29T18:08:03.139Z,10.23
2018-04-29T18:10:36.287Z,13.43
2018-04-29T18:13:05.948Z,13.40
2018-04-29T18:15:39.264Z,9.43
2018-04-29T18:18:08.364Z,14.57
2018-04-29T18:20:56.482Z,9.00
2018-04-29T18:23:25.264Z,10.43
2018-04-29T18:25:55.151Z,10.43
2018-04-29T18:28:25.727Z,12.40
2018-04-29T18:30:54.539Z,10.80
2018-04-29T18:33:23.340Z,6.57
2018-04-29T18:35:52.234Z,10.57
2018-04-29T18:38:22.113Z,11.00
2018-04-29T18:40:51.773Z,13.10
2018-04-29T18:43:21.269Z,9.57
2018-04-29T18:45:53.475Z,10.73
2018-04-29T18:48:22.617Z,8.73
2018-04-29T18:50:56.008Z,11.17
2018-04-29T18:53:25.004Z,11.53
2018-04-29T18:56:06.811Z,9.73
2018-04-29T18:58:36.430Z,10.20
2018-04-29T19:01:06.819Z,10.27
2018-04-29T19:03:35.380Z,13.97
2018-04-29T19:06:05.399Z,13.17
2018-04-29T19:08:34.664Z,13.13
2018-04-29T19:11:16.280Z,12.10
2018-04-29T19:13:45.653Z,12.63
2018-04-29T19:16:14.218Z,10.17
2018-04-29T19:18:42.751Z,11.93
2018-04-29T19:21:12.626Z,13.70
2018-04-29T19:23:42.127Z,9.13
2018-04-29T19:26:13.466Z,14.10
2018-04-29T19:28:43.347Z,12.70
2018-04-29T19:31:25.096Z,13.43
2018-04-29T19:33:55.091Z,14.43
2018-04-29T19:36:25.231Z,14.57
2018-04-29T19:38:54.967Z,11.80
2018-04-29T19:41:23.755Z,10.77
2018-04-29T19:43:52.758Z,13.50
2018-04-29T19:46:23.554Z,12.20
2018-04-29T19:48:52.780Z,14.07
2018-04-29T19:51:26.434Z,12.13
2018-04-29T19:53:55.763Z,12.70
2018-04-29T19:56:29.035Z,14.13
2018-04-29T19:58:58.536Z,12.30
2018-04-29T20:01:30.954Z,14.57
2018-04-29T20:04:00.873Z,11.97
2018-04-29T20:06:33.286Z,13.20
2018-04-29T20:09:04.701Z,11.97
2018-04-29T20:11:34.127Z,15.50
2018-04-29T20:14:04.446Z,15.37
2018-04-29T20:16:37.289Z,10.73
2018-04-29T20:19:07.129Z,12.90
2018-04-29T20:21:38.919Z,11.90
2018-04-29T20:24:08.161Z,13.67
2018-04-29T20:26:41.279Z,13.83
2018-04-29T20:29:10.116Z,11.37
2018-04-29T20:31:51.619Z,15.63
2018-04-29T20:34:20.407Z,13.90
2018-04-29T20:36:48.881Z,12.93
2018-04-29T20:39:17.378Z,14.57
2018-04-29T20:41:49.676Z,14.47
2018-04-29T20:44:18.536Z,14.67
2018-04-29T20:46:51.086Z,17.27
2018-04-29T20:49:20.026Z,12.90
2018-04-29T20:51:52.867Z,19.53
2018-04-29T20:54:22.491Z,16.33
2018-04-29T20:57:05.186Z,17.30
2018-04-29T20:59:33.701Z,13.90
2018-04-29T21:02:02.194Z,19.43
2018-04-29T21:04:32.653Z,15.83
2018-04-29T21:07:02.259Z,22.20
2018-04-29T21:09:31.128Z,23.90
2018-04-29T21:12:04.295Z,32.47
2018-04-29T21:14:33.140Z,41.23
2018-04-29T21:17:06.288Z,41.33
2018-04-29T21:19:35.947Z,44.43
2018-04-29T21:22:09.095Z,45.87
2018-04-29T21:24:38.115Z,42.33
2018-04-29T21:27:12.127Z,39.43
2018-04-29T21:29:42.088Z,38.97
2018-04-29T21:32:15.259Z,40.00
2018-04-29T21:34:45.115Z,36.97
2018-04-29T21:37:17.657Z,34.47
2018-04-29T21:39:46.155Z,32.50
2018-04-29T21:42:18.332Z,34.23
2018-04-29T21:44:47.547Z,33.40
2018-04-29T21:47:24.703Z,22.27
2018-04-29T21:49:54.689Z,11.57
2018-04-29T21:52:23.232Z,9.80
2018-04-29T21:54:52.458Z,9.50
2018-04-29T21:57:24.459Z,9.03
2018-04-29T21:59:53.779Z,9.63
2018-04-29T22:02:27.430Z,7.80
2018-04-29T22:04:58.038Z,8.80
2018-04-29T22:07:30.805Z,12.97
2018-04-29T22:10:00.080Z,11.77
2018-04-29T22:12:34.118Z,6.20
2018-04-29T22:15:04.156Z,3.47
2018-04-29T22:17:33.769Z,4.40
2018-04-29T22:20:03.744Z,4.27
2018-04-29T22:22:36.803Z,7.00
2018-04-29T22:25:06.438Z,6.10
2018-04-29T22:27:47.530Z,5.63
2018-04-29T22:30:16.317Z,8.97
2018-04-29T22:32:45.375Z,10.50
2018-04-29T22:35:13.843Z,11.40
2018-04-29T22:37:43.674Z,16.03
2018-04-29T22:40:12.548Z,16.47
2018-04-29T22:42:44.898Z,27.23
2018-04-29T22:45:14.606Z,20.83
2018-04-29T22:47:48.745Z,19.73
2018-04-29T22:50:17.199Z,24.57
2018-04-29T22:52:59.785Z,26.23
2018-04-29T22:55:29.297Z,27.87
2018-04-29T22:57:58.803Z,32.37
2018-04-29T23:00:28.331Z,28.10
2018-04-29T23:02:57.640Z,29.03
2018-04-29T23:05:26.134Z,29.60
2018-04-29T23:07:58.671Z,27.23
2018-04-29T23:10:27.830Z,28.07
2018-04-29T23:13:09.795Z,29.10
2018-04-29T23:15:39.605Z,30.13
2018-04-29T23:18:09.279Z,28.53
2018-04-29T23:20:39.569Z,24.67
2018-04-29T23:23:09.938Z,21.87
2018-04-29T23:25:38.426Z,25.60
2018-04-29T23:28:11.239Z,24.47
2018-04-29T23:30:40.133Z,22.57
2018-04-29T23:33:12.975Z,22.70
2018-04-29T23:35:42.234Z,24.00
2018-04-29T23:38:14.817Z,20.20
2018-04-29T23:40:44.896Z,22.43
2018-04-29T23:43:18.031Z,24.43
2018-04-29T23:45:47.292Z,22.03
2018-04-29T23:48:19.737Z,23.23
2018-04-29T23:50:48.214Z,20.33
2018-04-29T23:53:20.120Z,23.30
2018-04-29T23:55:49.654Z,25.27
2018-04-29T23:58:26.119Z,24.97
